Accueil
METAR-TAF:

METAR-TAF

Aéroports :

Aéroport de Trabzon

Trabzon, Turquie

latitude: 41-00N, longitude: 039-43E, altitude: 35 m

Observation

Le bulletin a été fait il y a 49 minutes, à 22:50 UTC
Vent 4 kt de sud
Température 8°C
Humidité 71%
Pression 1018 hPa
Visibilité 10 km ou plus
pas de nuages en-dessous de 1500 mètres et pas de cumulonimbus.

METAR: LTCG 092250Z 19004KT CAVOK 08/03 Q1018 NOSIG RMK RWY29 17001KT

Heure: 02:39 (23:39 UTC)

Prévision

Le bulletin a été fait il y a 6 heures et 59 minutes, à 16:40 UTC
Prévision valable du 09 à 18 UTC au 10 à 18 UTC
Vent 7 kt de sud/sud-ouest
Visibilité 10 km ou plus
pas de nuages en-dessous de 1500 mètres et pas de cumulonimbus.
Probabilité 30%
du 09 à 21 UTC au 10 à 01 UTC
Nuages épars à une hauteur de 1500 ft

TAF: LTCG 091640Z 0918/1018 20007KT CAVOK PROB30 0921/1001 SCT015

Observations et prévisions météorologiques de plus de 4000 aéroports (messages METAR et TAF).

Les stations disponibles sont représentées par des disques jaunes et rouges sur la carte.

Passer la souris dessus pour voir le nom de la station.

Cliquer dessus pour voir les observations et prévisions météorologiques.

Pour changer de carte: cliquez sur les boutons verts avec une croix noire pour zoomer, sur le bouton vert avec un tiret pour effectuer un zoom arrière, ou sur les flèches vertes pour les cartes adjacentes.


METAR-TAF: